Ariadne — 5BSE4 — position and weather

sailwx.info

Track history (hours):
 
Tides and Currents Weather Stations Pressure Air Temp Water Temp Dewpoint Dewpoint Depression Visibility Wind Speed Wind Dir Waves Ship Positions

Ariadne

Last reported at 2017-Dec-03 05:55 UTC. Time now 2017-Dec-15 10:20 UTC.
Position N 36°22' E 022°27'.
Warning: this ship's position is 12 days out of date.

Length 130 m; draft 6.1 m.

Type: Other ship. MMSI: 210594000.

Date/timePositionNaut miles runAvg speedWind from/ knotsBaromVisibWave heightAir tempDewpointWater temp
2017-Dec-03 05:55N 36°22' E 022°27'15 9.3
2017-Dec-03 04:21N 36°24' E 022°45'8 9.0
2017-Dec-03 03:30N 36°25' E 022°55'4 9.0
2017-Dec-03 03:00N 36°25' E 023°00'11 8.5
2017-Dec-03 01:43N 36°26' E 023°14'2 7.8
2017-Dec-03 01:30N 36°28' E 023°14'4 8.6
2017-Dec-03 01:00N 36°32' E 023°16'6 9.0
2017-Dec-03 00:17N 36°37' E 023°19'4 8.7
2017-Dec-02 23:47N 36°41' E 023°22'2 8.4
2017-Dec-02 23:30N 36°44' E 023°23'10 8.7
2017-Dec-02 22:23N 36°52' E 023°28'3 9.0
2017-Dec-02 22:00N 36°55' E 023°30'5 9.1
2017-Dec-02 21:30N 36°60' E 023°31'9 8.9
2017-Dec-02 20:29N 37°09' E 023°34'5 8.5
2017-Dec-02 19:55N 37°13' E 023°35'6 8.4
2017-Dec-02 19:11N 37°20' E 023°37'1 8.3
2017-Dec-02 19:00N 37°21' E 023°37'5 8.5
2017-Dec-02 18:23N 37°26' E 023°38'3 8.6
2017-Dec-02 17:59N 37°30' E 023°39'4 8.7
2017-Dec-02 17:30N 37°33' E 023°41'4 8.5
2017-Dec-02 17:00N 37°38' E 023°42'4 8.3
2017-Dec-02 16:30N 37°42' E 023°41'5 9.0
2017-Dec-02 16:00N 37°46' E 023°39'5 9.2
2017-Dec-02 15:30N 37°49' E 023°34'510.0
2017-Dec-02 15:00N 37°50' E 023°28'510.1
2017-Dec-02 14:30N 37°53' E 023°23'4 7.8
2017-Dec-02 14:00N 37°57' E 023°25'0 0.0
2017-Dec-02 13:30N 37°57' E 023°25'0 0.9
2017-Dec-02 13:00N 37°57' E 023°25'2 3.9
2017-Dec-02 12:31N 37°59' E 023°25'4 8.9
2017-Dec-02 12:01N 38°01' E 023°30'2 3.7
2017-Dec-02 11:25N 38°02' E 023°33'0 0.0
2017-Dec-02 10:58N 38°02' E 023°33'0 0.0
2017-Dec-02 10:28N 38°02' E 023°33'0 0.0
2017-Dec-02 09:58N 38°02' E 023°33'0 0.0
2017-Dec-02 09:28N 38°02' E 023°33'0 0.0
2017-Dec-02 08:58N 38°02' E 023°33'0 0.0
2017-Dec-02 08:28N 38°02' E 023°33'0 0.0
2017-Dec-02 07:58N 38°02' E 023°33'0 0.0
2017-Dec-02 07:28N 38°02' E 023°33'0 0.0
2017-Dec-02 06:58N 38°02' E 023°33'0 0.0
2017-Dec-02 06:28N 38°02' E 023°33'0 0.0
2017-Dec-02 05:58N 38°02' E 023°33'0 0.0
2017-Dec-02 05:28N 38°02' E 023°33'0 0.0
2017-Dec-02 04:58N 38°02' E 023°33'0 0.0
2017-Dec-02 04:31N 38°02' E 023°33'0 0.0
2017-Dec-02 03:58N 38°02' E 023°33'0 0.0
2017-Dec-02 03:28N 38°02' E 023°33'0 0.0
2017-Dec-02 02:58N 38°02' E 023°33'0 0.0
2017-Dec-02 02:28N 38°02' E 023°33'0 0.0
2017-Dec-02 01:58N 38°02' E 023°33'0 0.0
2017-Dec-02 01:28N 38°02' E 023°33'0 0.0
2017-Dec-02 00:58N 38°02' E 023°33'0 0.0
2017-Dec-02 00:28N 38°02' E 023°33'0 0.0
2017-Dec-01 23:58N 38°02' E 023°33'0 0.0
2017-Dec-01 23:28N 38°02' E 023°33'0 0.0
2017-Dec-01 22:58N 38°02' E 023°33'0 0.0
2017-Dec-01 22:28N 38°02' E 023°33'0 0.0
2017-Dec-01 21:58N 38°02' E 023°33'0 0.0
2017-Dec-01 21:31N 38°02' E 023°33'0 0.0
2017-Dec-01 20:58N 38°02' E 023°33'0 0.0
2017-Dec-01 20:28N 38°02' E 023°33'0 0.0
2017-Dec-01 19:58N 38°02' E 023°33'0 0.0
2017-Dec-01 19:28N 38°02' E 023°33'0 0.0
2017-Dec-01 18:58N 38°02' E 023°33'0 0.0
2017-Dec-01 18:28N 38°02' E 023°33'0 0.0
2017-Dec-01 17:58N 38°02' E 023°33'0 0.0
2017-Dec-01 17:31N 38°02' E 023°33'0 0.0
2017-Dec-01 16:58N 38°02' E 023°33'0 0.0
2017-Dec-01 16:28N 38°02' E 023°33'0 0.0
2017-Dec-01 16:01N 38°02' E 023°33'0 0.0
2017-Dec-01 15:28N 38°02' E 023°33'0 0.0
2017-Dec-01 15:01N 38°02' E 023°33'0 0.0
2017-Dec-01 14:28N 38°02' E 023°33'0 0.0
2017-Dec-01 14:01N 38°02' E 023°33'0 0.0
2017-Dec-01 13:28N 38°02' E 023°33'0 0.0
2017-Dec-01 12:58N 38°02' E 023°33'0 0.0
2017-Dec-01 12:28N 38°02' E 023°33'0 0.0
2017-Dec-01 11:58N 38°02' E 023°33'0 0.0
2017-Dec-01 11:28N 38°02' E 023°33'0 0.0
2017-Dec-01 10:55N 38°02' E 023°33'0 0.0
2017-Dec-01 10:31N 38°02' E 023°33'0 0.0
2017-Dec-01 09:58N 38°02' E 023°33'0 0.0
2017-Dec-01 09:28N 38°02' E 023°33'0 0.0
2017-Dec-01 09:01N 38°02' E 023°33'0 0.0
2017-Dec-01 08:31N 38°02' E 023°33'0 0.0
2017-Dec-01 07:58N 38°02' E 023°33'0 0.0
2017-Dec-01 07:28N 38°02' E 023°33'0 0.0
2017-Dec-01 06:58N 38°02' E 023°33'0 0.0
2017-Dec-01 06:28N 38°02' E 023°33'0 0.0
2017-Dec-01 06:01N 38°02' E 023°33'0 0.0
2017-Dec-01 05:31N 38°02' E 023°33'0 0.0
2017-Dec-01 04:58N 38°02' E 023°33'0 0.0
2017-Dec-01 04:30N 38°02' E 023°33'0 0.0
2017-Dec-01 04:00N 38°02' E 023°33'0 0.0
2017-Dec-01 03:28N 38°02' E 023°33'0 0.0
2017-Dec-01 02:58N 38°02' E 023°33'0 0.0
2017-Dec-01 02:31N 38°02' E 023°33'0 0.0
2017-Dec-01 02:01N 38°02' E 023°33'0 0.0
2017-Dec-01 01:28N 38°02' E 023°33'0 0.0
2017-Dec-01 00:58N 38°02' E 023°33'0 0.0
2017-Dec-01 00:31N 38°02' E 023°33'0 0.0
2017-Dec-01 00:01N 38°02' E 023°33'0 0.0
2017-Nov-30 23:31N 38°02' E 023°33'0 0.0
2017-Nov-30 22:58N 38°02' E 023°33'0 0.0
2017-Nov-30 22:28N 38°02' E 023°33'0 0.0
2017-Nov-30 21:57N 38°02' E 023°33'0 0.0
2017-Nov-30 21:31N 38°02' E 023°33'0 0.0
2017-Nov-30 21:01N 38°02' E 023°33'0 0.0
2017-Nov-30 20:31N 38°02' E 023°33'0 0.0
2017-Nov-30 20:01N 38°02' E 023°33'0 0.0
2017-Nov-30 19:28N 38°02' E 023°33'0 0.0
2017-Nov-30 18:58N 38°02' E 023°33'0 0.0
2017-Nov-30 18:30N 38°02' E 023°33'0 0.0
2017-Nov-30 17:58N 38°02' E 023°33'0 0.0
2017-Nov-30 17:28N 38°02' E 023°33'0 0.0
2017-Nov-30 16:58N 38°02' E 023°33'0 0.0
2017-Nov-30 16:31N 38°02' E 023°33'0 0.0
2017-Nov-30 15:58N 38°02' E 023°33'0 0.0
2017-Nov-30 15:28N 38°02' E 023°33'0 0.0
2017-Nov-30 14:58N 38°02' E 023°33'0 0.0
2017-Nov-30 14:30N 38°02' E 023°33'0 0.0
2017-Nov-30 14:00N 38°02' E 023°33'0 0.0
2017-Nov-30 13:31N 38°02' E 023°33'0 0.0
2017-Nov-30 13:00N 38°02' E 023°33'0 0.0
2017-Nov-30 12:30N 38°02' E 023°33'0 0.0
2017-Nov-30 12:01N 38°02' E 023°33'0 0.0
2017-Nov-30 11:30N 38°02' E 023°33'0 0.0
2017-Nov-30 11:00N 38°02' E 023°33'0 0.0
2017-Nov-30 10:30N 38°02' E 023°33'0 0.0
2017-Nov-30 10:01N 38°02' E 023°33'0 0.0
2017-Nov-30 09:28N 38°02' E 023°33'0 0.0
2017-Nov-30 09:01N 38°02' E 023°33'0 0.0
2017-Nov-30 08:31N 38°02' E 023°33'0 0.0
2017-Nov-30 08:00N 38°02' E 023°33'0 0.0
2017-Nov-30 07:31N 38°02' E 023°33'0 0.0
2017-Nov-30 07:01N 38°02' E 023°33'0 0.0
2017-Nov-30 06:30N 38°02' E 023°33'0 0.0
2017-Nov-30 06:01N 38°02' E 023°33'0 0.0
2017-Nov-30 05:28N 38°02' E 023°33'0 0.0
2017-Nov-30 05:01N 38°02' E 023°33'0 0.0
2017-Nov-30 04:31N 38°02' E 023°33'0 0.0
2017-Nov-30 04:00N 38°02' E 023°33'0 0.0
2017-Nov-30 03:31N 38°02' E 023°33'0 0.0
2017-Nov-30 03:01N 38°02' E 023°33'0 0.0
2017-Nov-30 02:28N 38°02' E 023°33'0 0.0
2017-Nov-30 02:01N 38°02' E 023°33'0 0.0
2017-Nov-30 01:31N 38°02' E 023°33'0 0.0
2017-Nov-30 00:57N 38°02' E 023°33'0 0.0
2017-Nov-30 00:28N 38°02' E 023°33'0 0.0
2017-Nov-29 23:58N 38°02' E 023°33'0 0.0
2017-Nov-29 23:31N 38°02' E 023°33'0 0.0
2017-Nov-29 22:58N 38°02' E 023°33'0 0.0
2017-Nov-29 22:31N 38°02' E 023°33'0 0.0
2017-Nov-29 21:58N 38°02' E 023°33'0 0.0
2017-Nov-29 21:31N 38°02' E 023°33'0 0.0
2017-Nov-29 21:00N 38°02' E 023°33'0 0.0
2017-Nov-29 20:30N 38°02' E 023°33'0 0.0
2017-Nov-29 19:55N 38°02' E 023°33'0 0.0
2017-Nov-29 19:31N 38°02' E 023°33'0 0.0
2017-Nov-29 19:00N 38°02' E 023°33'0 0.0
2017-Nov-29 18:31N 38°02' E 023°33'0 0.0
2017-Nov-29 18:01N 38°02' E 023°33'0 0.0
2017-Nov-29 17:30N 38°02' E 023°33'0 0.0
2017-Nov-29 17:01N 38°02' E 023°33'0 0.0
2017-Nov-29 16:30N 38°02' E 023°33'0 0.0
2017-Nov-29 16:00N 38°02' E 023°33'0 0.0
2017-Nov-29 15:30N 38°02' E 023°33'0 0.0
2017-Nov-29 15:00N 38°02' E 023°33'0 0.0
2017-Nov-29 14:30N 38°02' E 023°33'0 0.0
2017-Nov-29 14:00N 38°02' E 023°33'0 0.0
2017-Nov-29 13:31N 38°02' E 023°33'0 0.0
2017-Nov-29 13:00N 38°02' E 023°33'0 0.0
2017-Nov-29 12:31N 38°02' E 023°33'0 0.0
2017-Nov-29 12:01N 38°02' E 023°33'0 0.0
2017-Nov-29 11:31N 38°02' E 023°33'0 0.0
2017-Nov-29 11:00N 38°02' E 023°33'0 0.0
2017-Nov-29 10:28N 38°02' E 023°33'0 0.0
2017-Nov-29 10:00N 38°02' E 023°33'0 0.0
2017-Nov-29 09:31N 38°02' E 023°33'0 0.0
2017-Nov-29 09:01N 38°02' E 023°33'0 0.0
2017-Nov-29 08:30N 38°02' E 023°33'0 0.0
2017-Nov-29 08:00N 38°02' E 023°33'0 0.0
2017-Nov-29 07:31N 38°02' E 023°33'1 1.1
2017-Nov-29 07:00N 38°01' E 023°33'4 9.0
2017-Nov-29 06:30N 37°57' E 023°34'4 7.4
2017-Nov-29 06:00N 37°54' E 023°37'0 0.2
2017-Nov-29 05:30N 37°54' E 023°37'0 0.8
2017-Nov-29 05:00N 37°54' E 023°37'2 4.0
2017-Nov-29 04:30N 37°52' E 023°38'4 8.2
2017-Nov-29 04:00N 37°49' E 023°41'10 8.0
2017-Nov-29 02:45N 37°40' E 023°47'7 7.9
2017-Nov-29 01:50N 37°38' E 023°56'3 7.9
2017-Nov-29 01:30N 37°38' E 023°59'25 7.3
2017-Nov-28 22:08N 38°01' E 024°06'1 8.3
2017-Nov-28 22:00N 38°03' E 024°06'  
2017-Nov-24 18:44N 38°25' E 023°36'0 0.0
2017-Nov-24 18:23N 38°25' E 023°36'0 0.0
2017-Nov-24 17:59N 38°25' E 023°36'0 0.0
2017-Nov-24 17:29N 38°25' E 023°36'0 0.0
2017-Nov-24 01:11N 38°25' E 023°36'0 0.0
2017-Nov-24 00:59N 38°25' E 023°36'0 0.0
2017-Nov-24 00:26N 38°25' E 023°36'0 0.0
2017-Nov-23 23:56N 38°25' E 023°36'  
Track history (hours):
 
Tides and Currents Weather Stations Pressure Air Temp Water Temp Dewpoint Dewpoint Depression Visibility Wind Speed Wind Dir Waves Ship Positions

Ariadne

Last reported at 2017-Dec-03 05:55 UTC. Time now 2017-Dec-15 10:20 UTC.
Position N 36°22' E 022°27'.
Warning: this ship's position is 12 days out of date.

Length 130 m; draft 6.1 m.

Type: Other ship. MMSI: 210594000.

Date/timePositionNaut miles runAvg speedWind from/ knotsBaromVisibWave heightAir tempDewpointWater temp
2017-Dec-03 05:55N 36°22' E 022°27'15 9.3
2017-Dec-03 04:21N 36°24' E 022°45'8 9.0
2017-Dec-03 03:30N 36°25' E 022°55'4 9.0
2017-Dec-03 03:00N 36°25' E 023°00'11 8.5
2017-Dec-03 01:43N 36°26' E 023°14'2 7.8
2017-Dec-03 01:30N 36°28' E 023°14'4 8.6
2017-Dec-03 01:00N 36°32' E 023°16'6 9.0
2017-Dec-03 00:17N 36°37' E 023°19'4 8.7
2017-Dec-02 23:47N 36°41' E 023°22'2 8.4
2017-Dec-02 23:30N 36°44' E 023°23'10 8.7
2017-Dec-02 22:23N 36°52' E 023°28'3 9.0
2017-Dec-02 22:00N 36°55' E 023°30'5 9.1
2017-Dec-02 21:30N 36°60' E 023°31'9 8.9
2017-Dec-02 20:29N 37°09' E 023°34'5 8.5
2017-Dec-02 19:55N 37°13' E 023°35'6 8.4
2017-Dec-02 19:11N 37°20' E 023°37'1 8.3
2017-Dec-02 19:00N 37°21' E 023°37'5 8.5
2017-Dec-02 18:23N 37°26' E 023°38'3 8.6
2017-Dec-02 17:59N 37°30' E 023°39'4 8.7
2017-Dec-02 17:30N 37°33' E 023°41'4 8.5
2017-Dec-02 17:00N 37°38' E 023°42'4 8.3
2017-Dec-02 16:30N 37°42' E 023°41'5 9.0
2017-Dec-02 16:00N 37°46' E 023°39'5 9.2
2017-Dec-02 15:30N 37°49' E 023°34'510.0
2017-Dec-02 15:00N 37°50' E 023°28'510.1
2017-Dec-02 14:30N 37°53' E 023°23'4 7.8
2017-Dec-02 14:00N 37°57' E 023°25'0 0.0
2017-Dec-02 13:30N 37°57' E 023°25'0 0.9
2017-Dec-02 13:00N 37°57' E 023°25'2 3.9
2017-Dec-02 12:31N 37°59' E 023°25'4 8.9
2017-Dec-02 12:01N 38°01' E 023°30'2 3.7
2017-Dec-02 11:25N 38°02' E 023°33'0 0.0
2017-Dec-02 10:58N 38°02' E 023°33'0 0.0
2017-Dec-02 10:28N 38°02' E 023°33'0 0.0
2017-Dec-02 09:58N 38°02' E 023°33'0 0.0
2017-Dec-02 09:28N 38°02' E 023°33'0 0.0
2017-Dec-02 08:58N 38°02' E 023°33'0 0.0
2017-Dec-02 08:28N 38°02' E 023°33'0 0.0
2017-Dec-02 07:58N 38°02' E 023°33'0 0.0
2017-Dec-02 07:28N 38°02' E 023°33'0 0.0
2017-Dec-02 06:58N 38°02' E 023°33'0 0.0
2017-Dec-02 06:28N 38°02' E 023°33'0 0.0
2017-Dec-02 05:58N 38°02' E 023°33'0 0.0
2017-Dec-02 05:28N 38°02' E 023°33'0 0.0
2017-Dec-02 04:58N 38°02' E 023°33'0 0.0
2017-Dec-02 04:31N 38°02' E 023°33'0 0.0
2017-Dec-02 03:58N 38°02' E 023°33'0 0.0
2017-Dec-02 03:28N 38°02' E 023°33'0 0.0
2017-Dec-02 02:58N 38°02' E 023°33'0 0.0
2017-Dec-02 02:28N 38°02' E 023°33'0 0.0
2017-Dec-02 01:58N 38°02' E 023°33'0 0.0
2017-Dec-02 01:28N 38°02' E 023°33'0 0.0
2017-Dec-02 00:58N 38°02' E 023°33'0 0.0
2017-Dec-02 00:28N 38°02' E 023°33'0 0.0
2017-Dec-01 23:58N 38°02' E 023°33'0 0.0
2017-Dec-01 23:28N 38°02' E 023°33'0 0.0
2017-Dec-01 22:58N 38°02' E 023°33'0 0.0
2017-Dec-01 22:28N 38°02' E 023°33'0 0.0
2017-Dec-01 21:58N 38°02' E 023°33'0 0.0
2017-Dec-01 21:31N 38°02' E 023°33'0 0.0
2017-Dec-01 20:58N 38°02' E 023°33'0 0.0
2017-Dec-01 20:28N 38°02' E 023°33'0 0.0
2017-Dec-01 19:58N 38°02' E 023°33'0 0.0
2017-Dec-01 19:28N 38°02' E 023°33'0 0.0
2017-Dec-01 18:58N 38°02' E 023°33'0 0.0
2017-Dec-01 18:28N 38°02' E 023°33'0 0.0
2017-Dec-01 17:58N 38°02' E 023°33'0 0.0
2017-Dec-01 17:31N 38°02' E 023°33'0 0.0
2017-Dec-01 16:58N 38°02' E 023°33'0 0.0
2017-Dec-01 16:28N 38°02' E 023°33'0 0.0
2017-Dec-01 16:01N 38°02' E 023°33'0 0.0
2017-Dec-01 15:28N 38°02' E 023°33'0 0.0
2017-Dec-01 15:01N 38°02' E 023°33'0 0.0
2017-Dec-01 14:28N 38°02' E 023°33'0 0.0
2017-Dec-01 14:01N 38°02' E 023°33'0 0.0
2017-Dec-01 13:28N 38°02' E 023°33'0 0.0
2017-Dec-01 12:58N 38°02' E 023°33'0 0.0
2017-Dec-01 12:28N 38°02' E 023°33'0 0.0
2017-Dec-01 11:58N 38°02' E 023°33'0 0.0
2017-Dec-01 11:28N 38°02' E 023°33'0 0.0
2017-Dec-01 10:55N 38°02' E 023°33'0 0.0
2017-Dec-01 10:31N 38°02' E 023°33'0 0.0
2017-Dec-01 09:58N 38°02' E 023°33'0 0.0
2017-Dec-01 09:28N 38°02' E 023°33'0 0.0
2017-Dec-01 09:01N 38°02' E 023°33'0 0.0
2017-Dec-01 08:31N 38°02' E 023°33'0 0.0
2017-Dec-01 07:58N 38°02' E 023°33'0 0.0
2017-Dec-01 07:28N 38°02' E 023°33'0 0.0
2017-Dec-01 06:58N 38°02' E 023°33'0 0.0
2017-Dec-01 06:28N 38°02' E 023°33'0 0.0
2017-Dec-01 06:01N 38°02' E 023°33'0 0.0
2017-Dec-01 05:31N 38°02' E 023°33'0 0.0
2017-Dec-01 04:58N 38°02' E 023°33'0 0.0
2017-Dec-01 04:30N 38°02' E 023°33'0 0.0
2017-Dec-01 04:00N 38°02' E 023°33'0 0.0
2017-Dec-01 03:28N 38°02' E 023°33'0 0.0
2017-Dec-01 02:58N 38°02' E 023°33'0 0.0
2017-Dec-01 02:31N 38°02' E 023°33'0 0.0
2017-Dec-01 02:01N 38°02' E 023°33'0 0.0
2017-Dec-01 01:28N 38°02' E 023°33'0 0.0
2017-Dec-01 00:58N 38°02' E 023°33'0 0.0
2017-Dec-01 00:31N 38°02' E 023°33'0 0.0
2017-Dec-01 00:01N 38°02' E 023°33'0 0.0
2017-Nov-30 23:31N 38°02' E 023°33'0 0.0
2017-Nov-30 22:58N 38°02' E 023°33'0 0.0
2017-Nov-30 22:28N 38°02' E 023°33'0 0.0
2017-Nov-30 21:57N 38°02' E 023°33'0 0.0
2017-Nov-30 21:31N 38°02' E 023°33'0 0.0
2017-Nov-30 21:01N 38°02' E 023°33'0 0.0
2017-Nov-30 20:31N 38°02' E 023°33'0 0.0
2017-Nov-30 20:01N 38°02' E 023°33'0 0.0
2017-Nov-30 19:28N 38°02' E 023°33'0 0.0
2017-Nov-30 18:58N 38°02' E 023°33'0 0.0
2017-Nov-30 18:30N 38°02' E 023°33'0 0.0
2017-Nov-30 17:58N 38°02' E 023°33'0 0.0
2017-Nov-30 17:28N 38°02' E 023°33'0 0.0
2017-Nov-30 16:58N 38°02' E 023°33'0 0.0
2017-Nov-30 16:31N 38°02' E 023°33'0 0.0
2017-Nov-30 15:58N 38°02' E 023°33'0 0.0
2017-Nov-30 15:28N 38°02' E 023°33'0 0.0
2017-Nov-30 14:58N 38°02' E 023°33'0 0.0
2017-Nov-30 14:30N 38°02' E 023°33'0 0.0
2017-Nov-30 14:00N 38°02' E 023°33'0 0.0
2017-Nov-30 13:31N 38°02' E 023°33'0 0.0
2017-Nov-30 13:00N 38°02' E 023°33'0 0.0
2017-Nov-30 12:30N 38°02' E 023°33'0 0.0
2017-Nov-30 12:01N 38°02' E 023°33'0 0.0
2017-Nov-30 11:30N 38°02' E 023°33'0 0.0
2017-Nov-30 11:00N 38°02' E 023°33'0 0.0
2017-Nov-30 10:30N 38°02' E 023°33'0 0.0
2017-Nov-30 10:01N 38°02' E 023°33'0 0.0
2017-Nov-30 09:28N 38°02' E 023°33'0 0.0
2017-Nov-30 09:01N 38°02' E 023°33'0 0.0
2017-Nov-30 08:31N 38°02' E 023°33'0 0.0
2017-Nov-30 08:00N 38°02' E 023°33'0 0.0
2017-Nov-30 07:31N 38°02' E 023°33'0 0.0
2017-Nov-30 07:01N 38°02' E 023°33'0 0.0
2017-Nov-30 06:30N 38°02' E 023°33'0 0.0
2017-Nov-30 06:01N 38°02' E 023°33'0 0.0
2017-Nov-30 05:28N 38°02' E 023°33'0 0.0
2017-Nov-30 05:01N 38°02' E 023°33'0 0.0
2017-Nov-30 04:31N 38°02' E 023°33'0 0.0
2017-Nov-30 04:00N 38°02' E 023°33'0 0.0
2017-Nov-30 03:31N 38°02' E 023°33'0 0.0
2017-Nov-30 03:01N 38°02' E 023°33'0 0.0
2017-Nov-30 02:28N 38°02' E 023°33'0 0.0
2017-Nov-30 02:01N 38°02' E 023°33'0 0.0
2017-Nov-30 01:31N 38°02' E 023°33'0 0.0
2017-Nov-30 00:57N 38°02' E 023°33'0 0.0
2017-Nov-30 00:28N 38°02' E 023°33'0 0.0
2017-Nov-29 23:58N 38°02' E 023°33'0 0.0
2017-Nov-29 23:31N 38°02' E 023°33'0 0.0
2017-Nov-29 22:58N 38°02' E 023°33'0 0.0
2017-Nov-29 22:31N 38°02' E 023°33'0 0.0
2017-Nov-29 21:58N 38°02' E 023°33'0 0.0
2017-Nov-29 21:31N 38°02' E 023°33'0 0.0
2017-Nov-29 21:00N 38°02' E 023°33'0 0.0
2017-Nov-29 20:30N 38°02' E 023°33'0 0.0
2017-Nov-29 19:55N 38°02' E 023°33'0 0.0
2017-Nov-29 19:31N 38°02' E 023°33'0 0.0
2017-Nov-29 19:00N 38°02' E 023°33'0 0.0
2017-Nov-29 18:31N 38°02' E 023°33'0 0.0
2017-Nov-29 18:01N 38°02' E 023°33'0 0.0
2017-Nov-29 17:30N 38°02' E 023°33'0 0.0
2017-Nov-29 17:01N 38°02' E 023°33'0 0.0
2017-Nov-29 16:30N 38°02' E 023°33'0 0.0
2017-Nov-29 16:00N 38°02' E 023°33'0 0.0
2017-Nov-29 15:30N 38°02' E 023°33'0 0.0
2017-Nov-29 15:00N 38°02' E 023°33'0 0.0
2017-Nov-29 14:30N 38°02' E 023°33'0 0.0
2017-Nov-29 14:00N 38°02' E 023°33'0 0.0
2017-Nov-29 13:31N 38°02' E 023°33'0 0.0
2017-Nov-29 13:00N 38°02' E 023°33'0 0.0
2017-Nov-29 12:31N 38°02' E 023°33'0 0.0
2017-Nov-29 12:01N 38°02' E 023°33'0 0.0
2017-Nov-29 11:31N 38°02' E 023°33'0 0.0
2017-Nov-29 11:00N 38°02' E 023°33'0 0.0
2017-Nov-29 10:28N 38°02' E 023°33'0 0.0
2017-Nov-29 10:00N 38°02' E 023°33'0 0.0
2017-Nov-29 09:31N 38°02' E 023°33'0 0.0
2017-Nov-29 09:01N 38°02' E 023°33'0 0.0
2017-Nov-29 08:30N 38°02' E 023°33'0 0.0
2017-Nov-29 08:00N 38°02' E 023°33'0 0.0
2017-Nov-29 07:31N 38°02' E 023°33'1 1.1
2017-Nov-29 07:00N 38°01' E 023°33'4 9.0
2017-Nov-29 06:30N 37°57' E 023°34'4 7.4
2017-Nov-29 06:00N 37°54' E 023°37'0 0.2
2017-Nov-29 05:30N 37°54' E 023°37'0 0.8
2017-Nov-29 05:00N 37°54' E 023°37'2 4.0
2017-Nov-29 04:30N 37°52' E 023°38'4 8.2
2017-Nov-29 04:00N 37°49' E 023°41'10 8.0
2017-Nov-29 02:45N 37°40' E 023°47'7 7.9
2017-Nov-29 01:50N 37°38' E 023°56'3 7.9
2017-Nov-29 01:30N 37°38' E 023°59'25 7.3
2017-Nov-28 22:08N 38°01' E 024°06'1 8.3
2017-Nov-28 22:00N 38°03' E 024°06'  
2017-Nov-24 18:44N 38°25' E 023°36'0 0.0
2017-Nov-24 18:23N 38°25' E 023°36'0 0.0
2017-Nov-24 17:59N 38°25' E 023°36'0 0.0
2017-Nov-24 17:29N 38°25' E 023°36'0 0.0
2017-Nov-24 01:11N 38°25' E 023°36'0 0.0
2017-Nov-24 00:59N 38°25' E 023°36'0 0.0
2017-Nov-24 00:26N 38°25' E 023°36'0 0.0
2017-Nov-23 23:56N 38°25' E 023°36'  

Dump ship's entire track history